Flight Briefing for CPX416

Departure Arrival
Chicago/Rockford International Airport (KRFD)
Click to view FAA NOTAMS
Seattle-Tacoma International Airport (KSEA)
Click to view FAA NOTAMS
Departure Time Arrival Time
N/A N/A
Aircraft Distance
B757-200SF 1684nm
Departure METAR Arrival METAR
KRFD 260954Z 00000KT 10SM CLR M04/M09 A3042 RMK AO2 SLP308 T10391094 KSEA 261007Z 17009KT 10SM -RA SCT019 BKN027 OVC042 07/04 A3004 RMK AO2 P0000 T00670044
Suggested Route
RFD COTON J30 ODI KP90G KP09A DIK KU15Q GEG GLASR1


View recent IFR Routes data
Notes



Charts and Procedures

Charts for KRFD
No chart available
Charts for KSEA
No chart available

Windy.com Weather Map